createdAt,value
2019-03-06T00:00:23.462Z,8.83
2019-03-06T00:01:15.443Z,8.80
2019-03-06T00:01:48.717Z,8.58
2019-03-06T00:02:21.199Z,8.13
2019-03-06T00:02:53.720Z,9.05
2019-03-06T00:03:26.220Z,8.53
2019-03-06T00:03:58.700Z,8.78
2019-03-06T00:04:31.182Z,7.92
2019-03-06T00:05:03.961Z,9.08
2019-03-06T00:05:36.737Z,8.08
2019-03-06T00:06:16.412Z,8.23
2019-03-06T00:06:43.533Z,8.33
2019-03-06T00:07:16.025Z,9.48
2019-03-06T00:07:48.498Z,7.45
2019-03-06T00:08:21.016Z,8.33
2019-03-06T00:08:53.836Z,7.85
2019-03-06T00:09:27.044Z,8.60
2019-03-06T00:09:59.540Z,8.45
2019-03-06T00:10:33.814Z,8.60
2019-03-06T00:11:07.559Z,8.30
2019-03-06T00:11:40.055Z,7.90
2019-03-06T00:12:12.543Z,8.45
2019-03-06T00:12:45.586Z,8.63
2019-03-06T00:13:18.066Z,8.30
2019-03-06T00:13:50.788Z,7.90
2019-03-06T00:14:23.287Z,8.15
2019-03-06T00:14:56.364Z,8.60
2019-03-06T00:15:28.967Z,8.40
2019-03-06T00:16:01.730Z,8.20
2019-03-06T00:16:34.231Z,8.55
2019-03-06T00:17:06.708Z,8.08
2019-03-06T00:17:39.191Z,8.45
2019-03-06T00:18:11.949Z,8.33
2019-03-06T00:18:44.452Z,7.90
2019-03-06T00:19:16.966Z,8.30
2019-03-06T00:19:49.469Z,7.62
2019-03-06T00:20:22.347Z,8.55
2019-03-06T00:20:54.848Z,9.20
2019-03-06T00:21:27.606Z,8.33
2019-03-06T00:22:00.386Z,9.23
2019-03-06T00:22:32.862Z,8.75
2019-03-06T00:23:05.353Z,8.08
2019-03-06T00:23:37.837Z,7.90
2019-03-06T00:24:10.322Z,9.28
2019-03-06T00:24:43.216Z,8.70
2019-03-06T00:25:15.985Z,8.50
2019-03-06T00:25:48.738Z,9.20
2019-03-06T00:26:21.227Z,8.90
2019-03-06T00:26:54.046Z,9.40
2019-03-06T00:27:27.197Z,8.60
2019-03-06T00:27:59.694Z,8.88
2019-03-06T00:28:32.377Z,8.75
2019-03-06T00:29:04.873Z,7.87
2019-03-06T00:29:38.520Z,8.73
2019-03-06T00:30:11.476Z,8.73
2019-03-06T00:30:43.959Z,9.43
2019-03-06T00:31:17.484Z,8.38
2019-03-06T00:31:49.971Z,8.80
2019-03-06T00:32:22.831Z,8.13
2019-03-06T00:32:55.322Z,9.18
2019-03-06T00:33:28.095Z,8.88
2019-03-06T00:34:00.565Z,8.75
2019-03-06T00:34:33.055Z,8.60
2019-03-06T00:35:09.189Z,8.73
2019-03-06T00:35:44.438Z,7.87
2019-03-06T00:36:20.130Z,9.18
2019-03-06T00:36:52.619Z,8.70
2019-03-06T00:37:25.103Z,9.15
2019-03-06T00:37:57.951Z,7.83
2019-03-06T00:38:30.423Z,8.15
2019-03-06T00:39:06.452Z,8.63
2019-03-06T00:39:45.659Z,8.55
2019-03-06T00:40:53.229Z,8.35
2019-03-06T00:41:43.412Z,8.23
2019-03-06T00:42:15.898Z,8.30
2019-03-06T00:42:48.753Z,9.05
2019-03-06T00:43:21.531Z,8.35
2019-03-06T00:43:53.998Z,7.97
2019-03-06T00:44:26.482Z,8.45
2019-03-06T00:44:59.323Z,8.75
2019-03-06T00:45:32.190Z,7.80
2019-03-06T00:46:04.691Z,8.18
2019-03-06T00:46:37.671Z,9.23
2019-03-06T00:47:10.150Z,8.73
2019-03-06T00:47:43.062Z,7.87
2019-03-06T00:48:15.548Z,9.05
2019-03-06T00:48:48.331Z,8.20
2019-03-06T00:49:20.816Z,8.35
2019-03-06T00:49:53.294Z,9.45
2019-03-06T00:50:25.791Z,8.40
2019-03-06T00:50:58.641Z,7.80
2019-03-06T00:51:31.164Z,8.95
2019-03-06T00:52:04.350Z,8.33
2019-03-06T00:52:37.090Z,8.45
2019-03-06T00:53:09.580Z,8.25
2019-03-06T00:53:42.056Z,7.92
2019-03-06T00:54:14.545Z,8.35
2019-03-06T00:54:47.031Z,8.90
2019-03-06T00:55:19.891Z,8.53
2019-03-06T00:55:52.391Z,7.95
2019-03-06T00:56:25.268Z,7.90
2019-03-06T00:56:58.306Z,8.55
2019-03-06T00:57:31.138Z,9.03
2019-03-06T00:58:03.627Z,7.70
2019-03-06T00:58:36.102Z,7.90
2019-03-06T00:59:08.869Z,7.80
2019-03-06T00:59:41.642Z,7.70
2019-03-06T01:00:14.600Z,9.45
2019-03-06T01:00:47.086Z,7.90
2019-03-06T01:01:19.854Z,9.10
2019-03-06T01:01:52.335Z,8.75
2019-03-06T01:02:24.967Z,8.58
2019-03-06T01:02:58.057Z,8.80
2019-03-06T01:03:30.833Z,7.95
2019-03-06T01:04:03.542Z,8.63
2019-03-06T01:04:36.678Z,8.08
2019-03-06T01:05:09.408Z,8.18
2019-03-06T01:05:42.513Z,8.45
2019-03-06T01:06:15.100Z,7.75
2019-03-06T01:06:47.949Z,8.63
2019-03-06T01:07:20.459Z,7.67
2019-03-06T01:07:53.313Z,7.97
2019-03-06T01:08:26.207Z,8.70
2019-03-06T01:08:59.065Z,9.25
2019-03-06T01:09:31.836Z,8.63
2019-03-06T01:10:04.448Z,8.13
2019-03-06T01:10:37.215Z,8.23
2019-03-06T01:11:09.689Z,8.25
2019-03-06T01:11:42.335Z,8.65
2019-03-06T01:12:15.114Z,9.23
2019-03-06T01:12:47.597Z,8.60
2019-03-06T01:13:20.486Z,8.00
2019-03-06T01:13:52.976Z,8.30
2019-03-06T01:14:25.454Z,8.15
2019-03-06T01:14:58.242Z,9.15
2019-03-06T01:15:30.714Z,7.95
2019-03-06T01:16:03.215Z,7.90
2019-03-06T01:16:35.698Z,8.00
2019-03-06T01:17:08.187Z,8.50
2019-03-06T01:17:41.745Z,8.98
2019-03-06T01:18:14.218Z,7.75
2019-03-06T01:18:46.739Z,8.13
2019-03-06T01:19:19.224Z,8.45
2019-03-06T01:19:51.703Z,7.62
2019-03-06T01:20:24.876Z,8.08
2019-03-06T01:20:57.730Z,7.45
2019-03-06T01:21:30.760Z,8.95
2019-03-06T01:22:03.655Z,9.30
2019-03-06T01:22:36.133Z,8.63
2019-03-06T01:23:08.940Z,8.35
2019-03-06T01:23:41.405Z,7.20
2019-03-06T01:24:14.493Z,9.18
2019-03-06T01:24:46.980Z,8.30
2019-03-06T01:25:19.575Z,8.70
2019-03-06T01:25:52.059Z,8.00
2019-03-06T01:26:24.526Z,7.65
2019-03-06T01:26:57.018Z,7.78
2019-03-06T01:27:29.831Z,8.55
2019-03-06T01:28:02.323Z,7.95
2019-03-06T01:28:34.806Z,7.42
2019-03-06T01:29:07.300Z,8.78
2019-03-06T01:29:40.152Z,7.08
2019-03-06T01:30:14.588Z,7.97
2019-03-06T01:30:47.072Z,8.73
2019-03-06T01:31:19.878Z,8.85
2019-03-06T01:31:52.364Z,8.88
2019-03-06T01:32:24.844Z,8.20
2019-03-06T01:33:02.475Z,9.18
2019-03-06T01:33:43.587Z,7.67
2019-03-06T01:34:34.206Z,7.30
2019-03-06T01:35:32.430Z,6.80
2019-03-06T01:36:14.160Z,6.35
2019-03-06T01:37:21.480Z,7.40
2019-03-06T01:38:09.392Z,7.15
2019-03-06T01:39:04.135Z,6.40
2019-03-06T01:39:56.115Z,7.42
2019-03-06T01:40:39.529Z,7.67
2019-03-06T01:41:18.801Z,7.05
2019-03-06T01:41:59.368Z,7.33
2019-03-06T01:42:39.945Z,7.65
2019-03-06T01:43:20.562Z,7.60
2019-03-06T01:44:10.650Z,7.87
2019-03-06T01:44:47.426Z,7.70
2019-03-06T01:45:20.299Z,8.23
2019-03-06T01:45:52.818Z,7.42
2019-03-06T01:46:25.414Z,6.95
2019-03-06T01:46:57.917Z,9.03
2019-03-06T01:47:31.054Z,8.75
2019-03-06T01:48:03.536Z,8.93
2019-03-06T01:48:36.627Z,7.12
2019-03-06T01:49:09.495Z,8.53
2019-03-06T01:49:42.166Z,7.95
2019-03-06T01:50:14.968Z,8.25
2019-03-06T01:50:47.751Z,7.90
2019-03-06T01:51:20.262Z,8.48
2019-03-06T01:51:52.744Z,7.42
2019-03-06T01:52:25.216Z,7.65
2019-03-06T01:52:57.710Z,8.05
2019-03-06T01:53:30.195Z,8.25
2019-03-06T01:54:02.679Z,7.78
2019-03-06T01:54:35.181Z,8.65
2019-03-06T01:55:09.314Z,8.10
2019-03-06T01:55:41.829Z,7.97
2019-03-06T01:56:14.611Z,7.80
2019-03-06T01:56:47.417Z,8.20
2019-03-06T01:57:20.181Z,8.43
2019-03-06T01:57:52.662Z,8.43
2019-03-06T01:58:25.583Z,9.08
2019-03-06T01:58:58.061Z,8.05
2019-03-06T01:59:30.888Z,7.30
2019-03-06T02:00:04.356Z,9.60
2019-03-06T02:00:37.934Z,8.03
2019-03-06T02:01:11.170Z,8.15
2019-03-06T02:01:44.039Z,7.80
2019-03-06T02:02:16.842Z,8.00
2019-03-06T02:02:49.737Z,9.15
2019-03-06T02:03:22.315Z,8.63
2019-03-06T02:03:55.112Z,8.55
2019-03-06T02:04:27.557Z,9.23
2019-03-06T02:05:00.374Z,8.15
2019-03-06T02:05:33.206Z,8.15
2019-03-06T02:06:05.903Z,8.20
2019-03-06T02:06:38.578Z,8.73
2019-03-06T02:07:11.357Z,7.62
2019-03-06T02:07:44.574Z,7.80
2019-03-06T02:08:17.532Z,8.50
2019-03-06T02:08:50.548Z,7.72
2019-03-06T02:09:26.908Z,6.80
2019-03-06T02:10:00.172Z,8.23
2019-03-06T02:10:33.163Z,7.78
2019-03-06T02:11:06.164Z,8.23
2019-03-06T02:11:39.027Z,7.85
2019-03-06T02:12:11.526Z,8.30
2019-03-06T02:12:44.528Z,8.05
2019-03-06T02:13:20.334Z,8.50
2019-03-06T02:13:52.832Z,8.80
2019-03-06T02:15:01.842Z,8.30
2019-03-06T02:15:34.600Z,8.23
2019-03-06T02:16:07.430Z,8.15
2019-03-06T02:16:39.899Z,8.15
2019-03-06T02:17:12.520Z,7.87
2019-03-06T02:17:45.004Z,8.00
2019-03-06T02:18:17.482Z,7.70
2019-03-06T02:18:49.991Z,7.22
2019-03-06T02:19:22.486Z,8.60
2019-03-06T02:19:55.722Z,7.97
2019-03-06T02:20:28.557Z,7.60
2019-03-06T02:21:01.396Z,9.05
2019-03-06T02:21:33.880Z,8.30
2019-03-06T02:22:06.495Z,8.48
2019-03-06T02:22:39.258Z,7.78
2019-03-06T02:23:12.406Z,7.62
2019-03-06T02:23:44.883Z,8.68
2019-03-06T02:24:17.708Z,7.80
2019-03-06T02:24:50.204Z,7.83
2019-03-06T02:25:23.026Z,8.58
2019-03-06T02:25:55.795Z,8.05
2019-03-06T02:26:28.284Z,9.03
2019-03-06T02:27:01.136Z,8.45
2019-03-06T02:27:33.822Z,8.58
2019-03-06T02:28:06.517Z,9.08
2019-03-06T02:28:38.991Z,8.73
2019-03-06T02:29:12.006Z,8.28
2019-03-06T02:29:44.826Z,8.30
2019-03-06T02:30:19.533Z,8.20
2019-03-06T02:30:52.665Z,8.08
2019-03-06T02:31:25.626Z,8.35
2019-03-06T02:31:58.102Z,8.73
2019-03-06T02:32:30.578Z,8.80
2019-03-06T02:33:03.076Z,8.90
2019-03-06T02:33:35.580Z,7.58
2019-03-06T02:34:08.063Z,8.33
2019-03-06T02:34:40.531Z,7.83
2019-03-06T02:35:13.685Z,9.68
2019-03-06T02:35:46.216Z,7.97
2019-03-06T02:36:19.085Z,8.73
2019-03-06T02:36:51.574Z,8.88
2019-03-06T02:37:24.064Z,8.05
2019-03-06T02:37:56.559Z,8.85
2019-03-06T02:38:29.036Z,8.65
2019-03-06T02:39:01.554Z,8.33
2019-03-06T02:39:34.020Z,8.90
2019-03-06T02:40:06.972Z,8.40
2019-03-06T02:40:39.498Z,8.63
2019-03-06T02:41:12.289Z,8.68
2019-03-06T02:41:45.468Z,9.05
2019-03-06T02:42:17.963Z,8.90
2019-03-06T02:42:50.663Z,8.28
2019-03-06T02:43:23.467Z,9.55
2019-03-06T02:43:56.517Z,9.40
2019-03-06T02:44:29.322Z,9.40
2019-03-06T02:45:02.134Z,8.65
2019-03-06T02:45:34.638Z,9.05
2019-03-06T02:46:07.171Z,8.88
2019-03-06T02:46:39.933Z,9.18
2019-03-06T02:47:12.735Z,9.45
2019-03-06T02:47:45.225Z,8.68
2019-03-06T02:48:18.018Z,8.70
2019-03-06T02:48:50.505Z,10.20
2019-03-06T02:49:23.317Z,9.60
2019-03-06T02:49:56.130Z,10.23
2019-03-06T02:50:28.899Z,8.65
2019-03-06T02:51:01.379Z,9.75
2019-03-06T02:51:33.912Z,9.60
2019-03-06T02:52:07.045Z,9.15
2019-03-06T02:52:39.516Z,9.45
2019-03-06T02:53:11.991Z,9.23
2019-03-06T02:53:44.870Z,8.90
2019-03-06T02:54:17.703Z,9.30
2019-03-06T02:54:50.192Z,10.05
2019-03-06T02:55:22.976Z,9.25
2019-03-06T02:55:56.163Z,8.65
2019-03-06T02:56:28.650Z,10.05
2019-03-06T02:57:01.484Z,9.53
2019-03-06T02:57:34.651Z,9.85
2019-03-06T02:58:29.634Z,9.88
2019-03-06T02:59:21.621Z,9.05
2019-03-06T03:00:13.586Z,8.70
2019-03-06T03:01:08.273Z,8.28
2019-03-06T03:01:48.553Z,9.40
2019-03-06T03:02:46.825Z,9.65
2019-03-06T03:03:37.794Z,8.70
2019-03-06T03:04:15.807Z,9.85
2019-03-06T03:05:26.223Z,9.28
2019-03-06T03:06:02.606Z,9.38
2019-03-06T03:06:47.881Z,10.35
2019-03-06T03:07:20.364Z,9.80
2019-03-06T03:07:52.875Z,9.05
2019-03-06T03:08:25.680Z,8.90
2019-03-06T03:08:58.171Z,10.30
2019-03-06T03:09:30.999Z,10.53
2019-03-06T03:10:04.436Z,10.20
2019-03-06T03:10:37.785Z,9.25
2019-03-06T03:11:10.548Z,10.03
2019-03-06T03:11:43.014Z,10.48
2019-03-06T03:12:15.591Z,9.15
2019-03-06T03:12:48.786Z,9.83
2019-03-06T03:13:21.547Z,9.75
2019-03-06T03:13:54.352Z,9.38
2019-03-06T03:14:27.390Z,10.15
2019-03-06T03:15:00.541Z,10.38
2019-03-06T03:15:33.511Z,11.00
2019-03-06T03:16:06.001Z,9.78
2019-03-06T03:16:38.500Z,10.45
2019-03-06T03:17:11.305Z,10.13
2019-03-06T03:17:44.318Z,9.63
2019-03-06T03:18:16.792Z,10.13
2019-03-06T03:18:49.313Z,11.05
2019-03-06T03:19:21.802Z,10.03
2019-03-06T03:19:54.603Z,11.10
2019-03-06T03:20:27.476Z,10.60
2019-03-06T03:21:00.272Z,9.10
2019-03-06T03:21:32.762Z,10.90
2019-03-06T03:22:05.368Z,11.43
2019-03-06T03:22:37.847Z,11.20
2019-03-06T03:23:10.625Z,10.48
2019-03-06T03:23:43.114Z,10.38
2019-03-06T03:24:15.964Z,11.08
2019-03-06T03:24:48.824Z,10.88
2019-03-06T03:25:21.315Z,10.88
2019-03-06T03:25:54.538Z,10.80
2019-03-06T03:26:27.340Z,10.55
2019-03-06T03:27:00.391Z,10.88
2019-03-06T03:27:33.258Z,10.63
2019-03-06T03:28:05.944Z,12.35
2019-03-06T03:28:38.438Z,11.15
2019-03-06T03:29:11.511Z,10.60
2019-03-06T03:29:44.356Z,11.15
2019-03-06T03:30:17.391Z,10.85
2019-03-06T03:30:50.224Z,9.55
2019-03-06T03:31:23.068Z,11.50
2019-03-06T03:31:55.566Z,11.12
2019-03-06T03:32:28.409Z,11.45
2019-03-06T03:33:00.885Z,10.50
2019-03-06T03:33:33.385Z,11.48
2019-03-06T03:34:05.861Z,12.15
2019-03-06T03:34:39.045Z,10.75
2019-03-06T03:35:11.752Z,11.08
2019-03-06T03:35:45.154Z,10.32
2019-03-06T03:36:17.639Z,11.70
2019-03-06T03:36:50.129Z,11.38
2019-03-06T03:37:24.525Z,11.53
2019-03-06T03:37:56.895Z,11.60
2019-03-06T03:38:29.391Z,11.22
2019-03-06T03:39:03.881Z,10.50
2019-03-06T03:39:36.360Z,12.15
2019-03-06T03:40:10.827Z,10.78
2019-03-06T03:40:43.357Z,11.15
2019-03-06T03:41:15.840Z,11.88
2019-03-06T03:41:48.672Z,10.75
2019-03-06T03:42:21.462Z,11.45
2019-03-06T03:42:54.253Z,11.00
2019-03-06T03:43:27.750Z,12.20
2019-03-06T03:44:00.239Z,10.82
2019-03-06T03:44:32.719Z,11.00
2019-03-06T03:45:06.308Z,11.80
2019-03-06T03:45:39.181Z,12.43
2019-03-06T03:46:12.108Z,12.50
2019-03-06T03:46:44.746Z,12.00
2019-03-06T03:47:17.212Z,11.10
2019-03-06T03:47:49.772Z,13.35
2019-03-06T03:48:22.696Z,11.75
2019-03-06T03:48:55.198Z,11.97
2019-03-06T03:49:28.055Z,11.57
2019-03-06T03:50:00.482Z,11.35
2019-03-06T03:50:33.479Z,11.85
2019-03-06T03:51:05.968Z,11.15
2019-03-06T03:51:38.766Z,11.75
2019-03-06T03:52:11.608Z,11.45
2019-03-06T03:52:44.418Z,12.50
2019-03-06T03:53:16.896Z,11.65
2019-03-06T03:53:49.376Z,12.40
2019-03-06T03:54:21.879Z,12.25
2019-03-06T03:54:54.351Z,12.95
2019-03-06T03:55:26.930Z,12.35
2019-03-06T03:55:59.405Z,12.00
2019-03-06T03:56:32.225Z,12.63
2019-03-06T03:57:05.123Z,12.85
2019-03-06T03:57:38.302Z,11.95
2019-03-06T03:58:11.163Z,12.75
2019-03-06T03:58:43.984Z,12.35
2019-03-06T03:59:16.603Z,12.47
2019-03-06T03:59:49.388Z,12.03
2019-03-06T04:00:22.097Z,12.47
2019-03-06T04:00:55.174Z,11.85
2019-03-06T04:01:27.645Z,11.85
2019-03-06T04:02:00.882Z,12.00
2019-03-06T04:02:33.621Z,13.43
2019-03-06T04:03:06.108Z,12.75
2019-03-06T04:03:38.809Z,10.95
2019-03-06T04:04:11.455Z,11.70
2019-03-06T04:04:44.279Z,11.90
2019-03-06T04:05:16.884Z,12.18
2019-03-06T04:05:49.712Z,11.43
2019-03-06T04:06:22.182Z,13.40
2019-03-06T04:06:55.043Z,13.28
2019-03-06T04:07:27.714Z,13.00
2019-03-06T04:08:00.307Z,12.47
2019-03-06T04:08:32.796Z,12.85
2019-03-06T04:09:06.098Z,12.13
2019-03-06T04:09:39.011Z,12.05
2019-03-06T04:10:12.084Z,12.63
2019-03-06T04:10:44.873Z,12.63
2019-03-06T04:11:17.886Z,12.68
2019-03-06T04:11:50.360Z,12.98
2019-03-06T04:12:23.148Z,12.63
2019-03-06T04:12:55.636Z,12.00
2019-03-06T04:13:28.404Z,11.68
2019-03-06T04:14:01.272Z,12.68
2019-03-06T04:14:33.961Z,12.82
2019-03-06T04:15:07.927Z,13.55
2019-03-06T04:15:40.542Z,11.75
2019-03-06T04:16:13.043Z,13.03
2019-03-06T04:16:45.519Z,12.28
2019-03-06T04:17:18.360Z,13.72
2019-03-06T04:17:50.858Z,12.58
2019-03-06T04:18:23.702Z,13.13
2019-03-06T04:18:56.671Z,11.83
2019-03-06T04:19:30.367Z,13.32
2019-03-06T04:20:03.015Z,12.10
2019-03-06T04:20:36.041Z,12.70
2019-03-06T04:21:08.904Z,12.05
2019-03-06T04:21:41.878Z,11.95
2019-03-06T04:22:14.711Z,12.88
2019-03-06T04:22:47.201Z,12.70
2019-03-06T04:23:19.692Z,12.82
2019-03-06T04:23:52.406Z,12.60
2019-03-06T04:24:24.966Z,12.23
2019-03-06T04:24:57.582Z,14.05
2019-03-06T04:25:30.058Z,12.30
2019-03-06T04:26:02.562Z,13.83
2019-03-06T04:26:35.104Z,12.73
2019-03-06T04:27:07.599Z,13.00
2019-03-06T04:27:40.596Z,13.93
2019-03-06T04:28:13.659Z,12.80
2019-03-06T04:28:46.501Z,12.70
2019-03-06T04:29:19.559Z,12.43
2019-03-06T04:29:52.064Z,12.60
2019-03-06T04:30:25.443Z,12.68
2019-03-06T04:30:58.286Z,13.55
2019-03-06T04:31:30.912Z,12.07
2019-03-06T04:32:03.386Z,12.28
2019-03-06T04:32:35.880Z,11.15
2019-03-06T04:33:08.764Z,12.85
2019-03-06T04:33:42.211Z,12.37
2019-03-06T04:34:14.706Z,12.35
2019-03-06T04:34:47.895Z,12.05
2019-03-06T04:35:21.012Z,13.48
2019-03-06T04:35:54.183Z,13.88
2019-03-06T04:36:26.781Z,12.78
2019-03-06T04:37:01.265Z,13.30
2019-03-06T04:37:33.844Z,12.90
2019-03-06T04:38:06.326Z,14.18
2019-03-06T04:38:38.840Z,12.95
2019-03-06T04:39:11.656Z,12.58
2019-03-06T04:39:44.168Z,14.28
2019-03-06T04:40:17.222Z,13.25
2019-03-06T04:40:49.732Z,12.93
2019-03-06T04:41:22.223Z,12.37
2019-03-06T04:41:55.262Z,13.95
2019-03-06T04:42:27.750Z,12.95
2019-03-06T04:43:00.728Z,12.95
2019-03-06T04:43:33.904Z,12.82
2019-03-06T04:44:06.782Z,12.65
2019-03-06T04:44:39.254Z,12.73
2019-03-06T04:45:12.512Z,13.58
2019-03-06T04:45:45.024Z,12.90
2019-03-06T04:46:18.401Z,11.95
2019-03-06T04:46:50.999Z,12.03
2019-03-06T04:47:23.690Z,12.25
2019-03-06T04:47:56.171Z,12.75
2019-03-06T04:48:29.464Z,12.37
2019-03-06T04:49:02.233Z,14.07
2019-03-06T04:49:34.724Z,12.40
2019-03-06T04:50:08.550Z,13.72
2019-03-06T04:50:41.037Z,13.08
2019-03-06T04:51:13.530Z,12.78
2019-03-06T04:51:46.349Z,14.38
2019-03-06T04:52:18.831Z,12.65
2019-03-06T04:52:51.679Z,13.40
2019-03-06T04:53:24.470Z,12.80
2019-03-06T04:53:56.946Z,12.90
2019-03-06T04:54:29.441Z,12.07
2019-03-06T04:55:02.212Z,12.40
2019-03-06T04:55:34.683Z,13.08
2019-03-06T04:56:07.176Z,12.60
2019-03-06T04:56:39.663Z,12.98
2019-03-06T04:57:12.189Z,12.68
2019-03-06T04:57:44.675Z,13.32
2019-03-06T04:58:17.168Z,12.95
2019-03-06T04:58:50.081Z,12.82
2019-03-06T04:59:22.572Z,14.40
2019-03-06T04:59:55.532Z,13.43
2019-03-06T05:00:28.016Z,12.65
2019-03-06T05:01:00.505Z,14.05
2019-03-06T05:01:33.083Z,12.68
2019-03-06T05:02:05.770Z,11.97
2019-03-06T05:02:38.292Z,12.25
2019-03-06T05:03:10.974Z,13.05
2019-03-06T05:03:45.005Z,12.93
2019-03-06T05:04:18.473Z,12.78
2019-03-06T05:04:50.951Z,13.32
2019-03-06T05:05:23.720Z,13.30
2019-03-06T05:05:56.482Z,13.30
2019-03-06T05:06:30.598Z,12.50
2019-03-06T05:07:08.000Z,13.38
2019-03-06T05:07:41.885Z,12.40
2019-03-06T05:08:14.822Z,13.08
2019-03-06T05:08:47.678Z,12.20
2019-03-06T05:09:20.171Z,13.35
2019-03-06T05:09:52.657Z,12.70
2019-03-06T05:10:25.509Z,12.40
2019-03-06T05:10:57.995Z,13.58
2019-03-06T05:11:30.806Z,13.85
2019-03-06T05:12:03.577Z,12.90
2019-03-06T05:12:36.063Z,13.20
2019-03-06T05:13:08.587Z,13.15
2019-03-06T05:13:41.455Z,13.00
2019-03-06T05:14:13.940Z,12.20
2019-03-06T05:14:46.560Z,13.50
2019-03-06T05:15:19.202Z,14.30
2019-03-06T05:15:51.703Z,11.97
2019-03-06T05:16:39.227Z,13.13
2019-03-06T05:17:23.578Z,11.83
2019-03-06T05:18:22.059Z,13.35
2019-03-06T05:18:58.606Z,11.90
2019-03-06T05:19:31.552Z,13.62
2019-03-06T05:20:04.880Z,12.82
2019-03-06T05:20:37.726Z,13.55
2019-03-06T05:21:10.211Z,12.65
2019-03-06T05:21:42.740Z,13.40
2019-03-06T05:22:15.227Z,12.73
2019-03-06T05:22:48.118Z,12.18
2019-03-06T05:23:20.592Z,13.03
2019-03-06T05:23:53.415Z,11.95
2019-03-06T05:24:27.401Z,12.60
2019-03-06T05:25:01.093Z,12.43
2019-03-06T05:25:35.977Z,12.90
2019-03-06T05:26:09.418Z,13.70
2019-03-06T05:26:41.935Z,12.53
2019-03-06T05:27:14.639Z,13.45
2019-03-06T05:27:47.519Z,12.53
2019-03-06T05:28:20.810Z,13.05
2019-03-06T05:28:53.664Z,13.32
2019-03-06T05:29:26.472Z,12.50
2019-03-06T05:29:59.324Z,12.43
2019-03-06T05:30:32.377Z,12.28
2019-03-06T05:31:05.292Z,11.85
2019-03-06T05:32:01.263Z,12.18
2019-03-06T05:32:35.576Z,12.20
2019-03-06T05:33:09.759Z,12.00
2019-03-06T05:33:43.039Z,12.40
2019-03-06T05:34:15.514Z,12.55
2019-03-06T05:34:48.031Z,12.40
2019-03-06T05:36:08.660Z,13.90
2019-03-06T05:37:31.800Z,9.68
2019-03-06T05:38:24.242Z,11.57
2019-03-06T05:39:04.163Z,12.03
2019-03-06T05:39:37.023Z,12.45
2019-03-06T05:40:10.319Z,13.70
2019-03-06T05:40:43.186Z,12.28
2019-03-06T05:41:15.960Z,13.00
2019-03-06T05:41:48.472Z,13.20
2019-03-06T05:42:21.264Z,13.30
2019-03-06T05:42:53.749Z,14.10
2019-03-06T05:43:26.244Z,14.47
2019-03-06T05:43:58.732Z,11.88
2019-03-06T05:44:31.220Z,14.70
2019-03-06T05:45:04.030Z,13.75
2019-03-06T05:45:37.010Z,13.83
2019-03-06T05:46:09.486Z,13.80
2019-03-06T05:46:42.345Z,13.13
2019-03-06T05:47:15.030Z,12.90
2019-03-06T05:47:47.506Z,13.20
2019-03-06T05:48:20.620Z,13.32
2019-03-06T05:48:53.098Z,12.80
2019-03-06T05:49:25.590Z,12.35
2019-03-06T05:49:58.083Z,12.00
2019-03-06T05:50:30.867Z,13.35
2019-03-06T05:51:03.498Z,13.32
2019-03-06T05:51:36.380Z,12.68
2019-03-06T05:52:09.144Z,13.18
2019-03-06T05:52:41.934Z,13.68
2019-03-06T05:53:16.554Z,13.28
2019-03-06T05:53:49.427Z,13.60
2019-03-06T05:54:21.912Z,13.35
2019-03-06T05:54:55.058Z,13.25
2019-03-06T05:55:27.543Z,11.00
2019-03-06T05:56:00.312Z,12.55
2019-03-06T05:56:32.844Z,12.65
2019-03-06T05:57:05.656Z,12.50
2019-03-06T05:57:38.111Z,13.60
2019-03-06T05:58:10.604Z,13.43
2019-03-06T05:58:43.420Z,13.15
2019-03-06T05:59:15.906Z,13.20
2019-03-06T05:59:48.789Z,14.13
2019-03-06T06:00:22.928Z,12.60
2019-03-06T06:00:55.424Z,12.85
2019-03-06T06:01:27.962Z,13.68
2019-03-06T06:02:00.847Z,14.55
2019-03-06T06:02:33.710Z,13.58
2019-03-06T06:03:06.188Z,13.53
2019-03-06T06:03:38.681Z,14.07
2019-03-06T06:04:11.176Z,14.25
2019-03-06T06:04:43.668Z,14.47
2019-03-06T06:05:16.364Z,13.75
2019-03-06T06:05:48.848Z,14.30
2019-03-06T06:06:21.535Z,14.50
2019-03-06T06:06:54.360Z,14.60
2019-03-06T06:07:27.194Z,13.53
2019-03-06T06:07:59.969Z,13.80
2019-03-06T06:08:33.139Z,14.55
2019-03-06T06:09:05.984Z,13.13
2019-03-06T06:09:38.896Z,13.28
2019-03-06T06:10:11.536Z,13.70
2019-03-06T06:10:44.024Z,14.28
2019-03-06T06:11:16.873Z,14.00
2019-03-06T06:11:49.656Z,14.50
2019-03-06T06:12:22.151Z,14.60
2019-03-06T06:12:54.682Z,12.53
2019-03-06T06:13:27.472Z,13.95
2019-03-06T06:13:59.951Z,13.68
2019-03-06T06:14:32.434Z,13.22
2019-03-06T06:15:06.695Z,13.90
2019-03-06T06:15:39.215Z,12.43
2019-03-06T06:16:11.691Z,12.70
2019-03-06T06:16:44.174Z,13.58
2019-03-06T06:17:16.654Z,13.00
2019-03-06T06:17:49.150Z,13.90
2019-03-06T06:18:21.992Z,13.90
2019-03-06T06:18:54.488Z,12.50
2019-03-06T06:19:27.723Z,15.10
2019-03-06T06:20:00.340Z,13.38
2019-03-06T06:20:32.887Z,14.63
2019-03-06T06:21:17.018Z,12.63
2019-03-06T06:22:11.426Z,14.20
2019-03-06T06:22:58.940Z,11.83
2019-03-06T06:23:44.720Z,12.58
2019-03-06T06:24:22.796Z,12.63
2019-03-06T06:24:55.271Z,13.98
2019-03-06T06:25:29.231Z,12.25
2019-03-06T06:26:01.733Z,13.50
2019-03-06T06:26:34.353Z,14.00
2019-03-06T06:27:07.231Z,12.90
2019-03-06T06:27:39.730Z,13.28
2019-03-06T06:28:12.586Z,13.43
2019-03-06T06:28:45.070Z,14.50
2019-03-06T06:29:17.595Z,16.20
2019-03-06T06:29:50.070Z,13.05
2019-03-06T06:30:22.558Z,14.80
2019-03-06T06:30:55.724Z,13.18
2019-03-06T06:31:28.993Z,13.78
2019-03-06T06:32:01.471Z,13.62
2019-03-06T06:32:33.963Z,14.55
2019-03-06T06:33:06.798Z,14.25
2019-03-06T06:33:39.283Z,13.50
2019-03-06T06:34:12.165Z,13.40
2019-03-06T06:34:44.686Z,12.70
2019-03-06T06:35:17.176Z,12.82
2019-03-06T06:35:49.668Z,13.85
2019-03-06T06:36:22.606Z,13.43
2019-03-06T06:36:55.096Z,13.03
2019-03-06T06:37:27.873Z,14.20
2019-03-06T06:38:00.866Z,13.40
2019-03-06T06:38:33.330Z,13.98
2019-03-06T06:39:06.377Z,13.40
2019-03-06T06:39:39.530Z,13.08
2019-03-06T06:40:12.250Z,14.03
2019-03-06T06:40:45.040Z,13.72
2019-03-06T06:41:17.518Z,12.80
2019-03-06T06:41:49.995Z,14.33
2019-03-06T06:42:22.483Z,13.20
2019-03-06T06:42:54.954Z,13.90
2019-03-06T06:43:27.453Z,11.90
2019-03-06T06:43:59.936Z,11.25
2019-03-06T06:44:32.418Z,12.20
2019-03-06T06:45:05.726Z,12.43
2019-03-06T06:45:38.265Z,11.80
2019-03-06T06:46:10.752Z,12.28
2019-03-06T06:46:43.608Z,13.08
2019-03-06T06:47:16.089Z,11.70
2019-03-06T06:48:08.927Z,12.82
2019-03-06T06:48:41.933Z,11.40
2019-03-06T06:49:14.814Z,12.80
2019-03-06T06:49:47.620Z,11.50
2019-03-06T06:50:20.106Z,12.40
2019-03-06T06:51:06.251Z,11.65
2019-03-06T06:52:22.508Z,12.65
2019-03-06T06:53:23.735Z,11.78
2019-03-06T06:54:07.980Z,11.20
2019-03-06T06:55:25.190Z,11.00
2019-03-06T06:56:22.267Z,10.98
2019-03-06T06:57:32.528Z,9.93
2019-03-06T06:58:47.068Z,12.13
2019-03-06T06:59:49.596Z,10.80
2019-03-06T07:01:03.997Z,10.45
2019-03-06T07:02:09.374Z,10.45
2019-03-06T07:03:24.849Z,9.98
2019-03-06T07:04:44.099Z,10.53
2019-03-06T07:05:37.107Z,10.82
2019-03-06T07:06:24.420Z,11.50
2019-03-06T07:07:06.716Z,10.00
2019-03-06T07:07:50.876Z,10.03
2019-03-06T07:08:41.969Z,10.60
2019-03-06T07:09:41.844Z,9.73
2019-03-06T07:10:33.252Z,10.55
2019-03-06T07:11:30.898Z,10.55
2019-03-06T07:12:28.711Z,10.85
2019-03-06T07:13:23.511Z,11.45
2019-03-06T07:14:15.767Z,10.40
2019-03-06T07:15:00.472Z,10.78
2019-03-06T07:15:52.388Z,10.85
2019-03-06T07:16:53.988Z,11.85
2019-03-06T07:17:54.563Z,11.00
2019-03-06T07:18:45.732Z,11.50
2019-03-06T07:19:26.553Z,10.78
2019-03-06T07:20:16.728Z,10.40
2019-03-06T07:21:14.536Z,10.65
2019-03-06T07:22:15.410Z,9.45
2019-03-06T07:23:06.622Z,11.20
2019-03-06T07:23:57.717Z,11.45
2019-03-06T07:24:49.728Z,10.00
2019-03-06T07:25:31.500Z,10.98
2019-03-06T07:26:26.355Z,11.15
2019-03-06T07:27:26.528Z,11.70
2019-03-06T07:28:21.680Z,10.15
2019-03-06T07:29:07.540Z,9.90
2019-03-06T07:29:45.047Z,10.48
2019-03-06T07:30:29.378Z,11.00
2019-03-06T07:31:17.416Z,10.38
2019-03-06T07:31:59.708Z,9.88
2019-03-06T07:33:00.768Z,10.00
2019-03-06T07:33:55.536Z,10.30
2019-03-06T07:34:46.127Z,9.63
2019-03-06T07:35:53.900Z,9.73
2019-03-06T07:36:48.258Z,9.78
2019-03-06T07:37:40.605Z,9.05
2019-03-06T07:38:13.170Z,8.95
2019-03-06T07:38:46.071Z,10.40
2019-03-06T07:39:32.190Z,10.80
2019-03-06T07:40:11.642Z,11.25
2019-03-06T07:41:12.687Z,10.70
2019-03-06T07:42:10.481Z,10.32
2019-03-06T07:42:56.711Z,9.65